DRO weather

Durango La Plata County Airport
Durango, Colorado, United States

Public forecast

Using degrees Fahrenheit for public forecast. Weather courtesy of forecast.io.

METAR (pilot weather report)

Retrieved 2019/07/22 23:53 UTC (32 minutes ago):

KDRO 222353Z AUTO 08014KT 10SM CLR 26/07 A3035 RMK AO2 PK WND 05031/2255 SLP188 T02610072 10322 20250 50007

TAF (pilot weather forecast)

Forecast is more than 12 hours old.

Retrieved 2019/07/22 00:34 UTC (24 hours ago):

TAF KDRO 222332Z 2300/2324 06020G30KT P6SM VCSH BKN150 FM230100 06010KT P6SM SCT150 FM230400 09007KT P6SM SCT070 SCT100 FM230900 VRB03KT P6SM FEW050 SCT200